Time;durP1;ratioP1;P1;durP2;ratioP2;P2;SDS_P1;SDS_P2;PMS_P1;PMS_P2;Temp;Humidity;BMP_temperature;BMP_pressure;BME280_temperature;BME280_humidity;BME280_pressure;Samples;Min_cycle;Max_cycle;Signal;HPM_P1;HPM_P2
2023/01/23 00:02:15;;;;;;;8.68;3.03;;;2.70;99.90;;;;;;7406500;19;19919;-71
2023/01/23 00:04:44;;;;;;;5.53;2.67;;;2.70;99.90;;;;;;7406076;19;19918;-71
2023/01/23 00:07:16;;;;;;;6.50;2.88;;;2.70;99.90;;;;;;7411130;19;19947;-72
2023/01/23 00:09:46;;;;;;;4.38;2.17;;;3.20;99.90;;;;;;7407538;19;19967;-72
2023/01/23 00:12:15;;;;;;;4.93;2.75;;;2.70;99.90;;;;;;7407964;19;20315;-72
2023/01/23 00:14:44;;;;;;;4.97;2.53;;;3.30;99.90;;;;;;7405141;19;20340;-72
2023/01/23 00:17:13;;;;;;;6.55;2.42;;;3.20;99.90;;;;;;7405328;19;19922;-72
2023/01/23 00:19:42;;;;;;;7.10;2.78;;;2.70;99.90;;;;;;7405124;19;19982;-71
2023/01/23 00:22:14;;;;;;;5.82;3.05;;;2.70;99.90;;;;;;7404001;19;19978;-71
2023/01/23 00:24:45;;;;;;;6.68;2.83;;;2.60;99.90;;;;;;7408633;19;19923;-72
2023/01/23 00:27:14;;;;;;;7.45;3.00;;;2.90;99.90;;;;;;7404591;19;19978;-72
2023/01/23 00:29:44;;;;;;;6.45;3.28;;;3.40;99.90;;;;;;7407040;19;19929;-72
2023/01/23 00:32:13;;;;;;;5.30;2.85;;;3.30;99.90;;;;;;7404993;19;19922;-72
2023/01/23 00:34:42;;;;;;;9.35;3.08;;;1.80;99.90;;;;;;7403766;19;19935;-72
2023/01/23 00:37:11;;;;;;;5.40;2.50;;;2.70;99.90;;;;;;7404157;19;20263;-72
2023/01/23 00:39:40;;;;;;;5.03;2.85;;;2.80;99.90;;;;;;7404337;19;19915;-72
2023/01/23 00:42:11;;;;;;;6.20;2.90;;;2.60;99.90;;;;;;7408814;19;19914;-72
2023/01/23 00:44:41;;;;;;;5.57;2.75;;;2.80;99.90;;;;;;7405370;19;19918;-72
2023/01/23 00:47:09;;;;;;;6.20;2.90;;;2.60;99.90;;;;;;7404732;19;20551;-72
2023/01/23 00:49:39;;;;;;;5.30;3.00;;;2.90;99.90;;;;;;7403863;19;19939;-71
2023/01/23 00:52:07;;;;;;;4.57;2.70;;;2.80;99.90;;;;;;7405534;19;19934;-72
2023/01/23 00:54:38;;;;;;;5.18;2.83;;;2.80;99.90;;;;;;7401234;19;19966;-72
2023/01/23 00:57:07;;;;;;;8.00;2.90;;;2.70;99.90;;;;;;7403965;19;19925;-73
2023/01/23 00:59:38;;;;;;;5.72;2.42;;;2.80;99.90;;;;;;7403765;19;19981;-72
2023/01/23 01:02:07;;;;;;;4.35;2.35;;;2.70;99.90;;;;;;7403774;19;19914;-72
2023/01/23 01:04:36;;;;;;;4.78;3.15;;;3.30;99.90;;;;;;7403745;19;19911;-72
2023/01/23 01:07:05;;;;;;;5.88;2.80;;;3.40;99.90;;;;;;7405206;19;19918;-72
2023/01/23 01:09:34;;;;;;;6.35;2.97;;;2.80;99.90;;;;;;7403864;19;19910;-72
2023/01/23 01:12:03;;;;;;;7.72;3.03;;;3.70;99.90;;;;;;7403055;19;19922;-71
2023/01/23 01:14:32;;;;;;;5.65;2.88;;;2.90;99.90;;;;;;7405534;19;19942;-72
2023/01/23 01:17:04;;;;;;;7.07;2.85;;;2.70;99.90;;;;;;7403678;19;19914;-72
2023/01/23 01:19:33;;;;;;;8.63;3.15;;;2.90;99.90;;;;;;7403761;19;19933;-72
2023/01/23 01:22:02;;;;;;;5.57;3.10;;;2.80;99.90;;;;;;7401555;19;19924;-72
2023/01/23 01:24:31;;;;;;;8.00;3.63;;;2.80;99.90;;;;;;7404751;19;20277;-72
2023/01/23 01:27:03;;;;;;;6.57;3.33;;;2.90;99.90;;;;;;7402707;19;19919;-72
2023/01/23 01:29:32;;;;;;;5.47;3.03;;;2.80;99.90;;;;;;7405878;19;19956;-72
2023/01/23 01:32:04;;;;;;;6.47;3.78;;;2.70;99.90;;;;;;7405896;19;19918;-72
2023/01/23 01:34:33;;;;;;;7.15;3.53;;;2.80;99.90;;;;;;7401980;19;19921;-72
2023/01/23 01:37:03;;;;;;;9.10;2.97;;;2.70;99.90;;;;;;7402889;19;19919;-71
2023/01/23 01:39:33;;;;;;;7.97;3.28;;;2.70;99.90;;;;;;7404333;19;20355;-72
2023/01/23 01:42:02;;;;;;;7.80;3.65;;;2.80;99.90;;;;;;7403724;19;19931;-72
2023/01/23 01:44:55;;;;;;;8.50;3.03;;;2.80;99.90;;;;;;7403873;19;19923;-72
2023/01/23 01:47:27;;;;;;;6.88;3.38;;;2.70;99.90;;;;;;7404861;19;20325;-72
2023/01/23 01:50:01;;;;;;;6.10;3.28;;;2.80;99.90;;;;;;7404503;19;20253;-72
2023/01/23 01:52:31;;;;;;;5.97;3.50;;;2.80;99.90;;;;;;7403239;19;19949;-72
2023/01/23 01:55:03;;;;;;;6.07;3.38;;;2.90;99.90;;;;;;7403061;19;19923;-71
2023/01/23 01:57:35;;;;;;;7.00;3.33;;;2.80;99.90;;;;;;7401476;19;19925;-72
2023/01/23 02:00:10;;;;;;;6.38;2.90;;;2.80;99.90;;;;;;7403925;19;19922;-72
2023/01/23 02:02:45;;;;;;;5.93;3.28;;;2.60;99.90;;;;;;7403581;19;19922;-72
2023/01/23 02:05:17;;;;;;;7.30;4.63;;;2.70;99.90;;;;;;7405284;19;19922;-72
2023/01/23 02:07:49;;;;;;;10.40;4.22;;;3.50;99.90;;;;;;7408501;19;19932;-72
2023/01/23 02:10:29;;;;;;;8.20;4.25;;;2.70;99.90;;;;;;7412724;19;20368;-71
2023/01/23 02:13:24;;;;;;;6.15;3.40;;;2.90;99.90;;;;;;7411704;19;20270;-72
2023/01/23 02:15:54;;;;;;;6.40;3.85;;;3.30;99.90;;;;;;7407958;19;19922;-71
2023/01/23 02:18:26;;;;;;;5.30;3.35;;;1.90;99.90;;;;;;7411525;19;19943;-72
2023/01/23 02:20:56;;;;;;;7.47;3.83;;;2.70;99.90;;;;;;7407840;19;19919;-72
2023/01/23 02:23:41;;;;;;;9.30;4.85;;;2.70;99.90;;;;;;7410723;19;20252;-71
2023/01/23 02:26:17;;;;;;;7.75;3.42;;;2.70;99.90;;;;;;7407594;19;19931;-71
2023/01/23 02:28:50;;;;;;;5.28;3.33;;;3.40;99.90;;;;;;7408705;19;19922;-72
2023/01/23 02:31:20;;;;;;;6.65;3.45;;;2.70;99.90;;;;;;7407855;19;19949;-72
2023/01/23 02:33:54;;;;;;;6.45;3.53;;;2.70;99.90;;;;;;7406067;19;20266;-72
2023/01/23 02:36:27;;;;;;;6.57;4.35;;;2.60;99.90;;;;;;7405879;19;20227;-72
2023/01/23 02:39:03;;;;;;;8.13;3.88;;;2.70;99.90;;;;;;7408583;19;19926;-72
2023/01/23 02:41:37;;;;;;;5.47;3.40;;;2.80;99.90;;;;;;7409192;19;19925;-72
2023/01/23 02:44:14;;;;;;;8.40;3.38;;;3.40;99.90;;;;;;7412962;19;19925;-72
2023/01/23 02:46:43;;;;;;;6.88;3.63;;;2.60;99.90;;;;;;7408754;19;20254;-71
2023/01/23 02:49:12;;;;;;;7.95;3.92;;;2.70;99.90;;;;;;7407412;19;19985;-72
2023/01/23 02:51:41;;;;;;;5.38;3.42;;;2.40;99.90;;;;;;7411416;19;19914;-72
2023/01/23 02:54:10;;;;;;;5.45;2.97;;;2.60;99.90;;;;;;7407208;19;20344;-72
2023/01/23 02:56:42;;;;;;;7.43;3.42;;;3.50;99.90;;;;;;7406874;19;19919;-71
2023/01/23 03:01:53;;;;;;;8.80;3.47;;;2.40;99.90;;;;;;7407038;19;19911;-71
2023/01/23 03:04:22;;;;;;;8.98;3.80;;;2.70;99.90;;;;;;7407223;19;19914;-71
2023/01/23 03:06:51;;;;;;;6.03;3.30;;;2.70;99.90;;;;;;7406991;19;19967;-72
2023/01/23 03:09:21;;;;;;;6.32;2.97;;;3.10;99.90;;;;;;7407759;19;20567;-72
2023/01/23 03:11:53;;;;;;;6.93;3.63;;;3.30;99.90;;;;;;7406610;19;19921;-72
2023/01/23 03:14:25;;;;;;;5.53;3.10;;;2.70;99.90;;;;;;7408389;19;19915;-71
2023/01/23 03:16:54;;;;;;;5.05;3.20;;;2.80;99.90;;;;;;7405641;19;19918;-72
2023/01/23 03:19:25;;;;;;;7.03;3.47;;;2.70;99.90;;;;;;7408085;19;19989;-72
2023/01/23 03:21:54;;;;;;;4.20;2.83;;;3.30;99.90;;;;;;7405291;19;19943;-72
2023/01/23 03:24:24;;;;;;;6.85;3.15;;;2.60;99.90;;;;;;7408948;19;19929;-72
2023/01/23 03:26:55;;;;;;;10.85;4.20;;;2.90;99.90;;;;;;7406219;19;19929;-72
2023/01/23 03:32:10;;;;;;;8.00;3.50;;;3.50;99.90;;;;;;7410992;19;20285;-72
2023/01/23 03:34:40;;;;;;;5.20;3.03;;;2.60;99.90;;;;;;7406381;19;19918;-71
2023/01/23 03:37:09;;;;;;;6.70;2.92;;;2.30;99.90;;;;;;7403812;19;19918;-72
2023/01/23 03:42:24;;;;;;;6.60;3.58;;;2.40;99.90;;;;;;7406139;19;20368;-72
2023/01/23 03:44:53;;;;;;;5.88;3.10;;;2.60;99.90;;;;;;7406276;19;19925;-72
2023/01/23 03:47:25;;;;;;;5.25;2.72;;;3.50;99.90;;;;;;7407103;19;19926;-72
2023/01/23 03:49:57;;;;;;;6.32;2.70;;;2.70;99.90;;;;;;7406190;19;19918;-72
2023/01/23 03:52:26;;;;;;;8.15;2.83;;;2.70;99.90;;;;;;7405781;19;19918;-72
2023/01/23 03:54:55;;;;;;;5.15;2.58;;;3.80;99.90;;;;;;7405857;19;19918;-72
2023/01/23 03:57:26;;;;;;;4.90;2.67;;;3.10;99.90;;;;;;7405087;19;19978;-72
2023/01/23 03:59:55;;;;;;;5.65;2.80;;;3.00;99.90;;;;;;7407932;19;19986;-72
2023/01/23 04:02:24;;;;;;;5.28;2.92;;;2.60;99.90;;;;;;7404397;19;19911;-72
2023/01/23 04:04:54;;;;;;;5.50;3.05;;;2.90;99.90;;;;;;7407805;19;19933;-72
2023/01/23 04:07:23;;;;;;;5.97;2.92;;;2.70;99.90;;;;;;7405277;19;19925;-72
2023/01/23 04:09:53;;;;;;;6.35;2.70;;;2.70;99.90;;;;;;7406198;19;19922;-72
2023/01/23 04:12:22;;;;;;;8.35;2.88;;;2.70;99.90;;;;;;7407138;19;19926;-72
2023/01/23 04:14:55;;;;;;;5.68;2.67;;;2.60;99.90;;;;;;7404897;19;19921;-72
2023/01/23 04:17:24;;;;;;;7.00;2.53;;;3.00;99.90;;;;;;7403269;19;19923;-71
2023/01/23 04:19:53;;;;;;;3.65;2.50;;;2.30;99.90;;;;;;7405735;19;19922;-72
2023/01/23 04:22:22;;;;;;;4.00;2.95;;;2.60;99.90;;;;;;7405281;19;19914;-72
2023/01/23 04:24:51;;;;;;;5.88;3.00;;;1.80;99.90;;;;;;7406945;19;19930;-72
2023/01/23 04:27:20;;;;;;;4.80;2.78;;;2.50;99.90;;;;;;7405694;19;19918;-72
2023/01/23 04:29:49;;;;;;;6.28;3.08;;;2.80;99.90;;;;;;7407092;19;20270;-71
2023/01/23 04:32:21;;;;;;;4.55;2.97;;;2.80;99.90;;;;;;7408221;19;20380;-71
2023/01/23 04:34:52;;;;;;;6.22;2.92;;;3.40;99.90;;;;;;7406556;19;19926;-72
2023/01/23 04:37:21;;;;;;;6.00;3.30;;;2.60;99.90;;;;;;7406552;19;19998;-71
2023/01/23 04:39:50;;;;;;;4.88;2.58;;;2.80;99.90;;;;;;7405787;19;20345;-72
2023/01/23 04:42:19;;;;;;;5.85;3.15;;;2.90;99.90;;;;;;7406257;19;19928;-71
2023/01/23 04:44:48;;;;;;;5.95;3.20;;;2.60;99.90;;;;;;7404096;19;19929;-72
2023/01/23 04:47:17;;;;;;;4.43;2.53;;;2.50;99.90;;;;;;7404913;19;19925;-72
2023/01/23 04:49:52;;;;;;;7.68;3.08;;;2.80;99.90;;;;;;7406071;19;19922;-72
2023/01/23 04:52:21;;;;;;;6.47;3.20;;;3.30;99.90;;;;;;7406479;19;19918;-72
2023/01/23 04:54:50;;;;;;;5.97;2.40;;;2.70;99.90;;;;;;7407261;19;20443;-72
2023/01/23 04:57:19;;;;;;;5.15;2.65;;;2.60;99.90;;;;;;7403901;19;19915;-74
2023/01/23 04:59:48;;;;;;;6.57;3.03;;;3.20;99.90;;;;;;7404247;19;19936;-71
2023/01/23 05:02:18;;;;;;;6.95;2.63;;;2.00;99.90;;;;;;7404044;19;19921;-72
2023/01/23 05:04:47;;;;;;;4.47;2.90;;;2.60;99.90;;;;;;7403230;19;19930;-72
2023/01/23 05:07:19;;;;;;;9.43;3.58;;;2.70;99.90;;;;;;7408288;19;19922;-72
2023/01/23 05:09:49;;;;;;;3.97;3.05;;;2.50;99.90;;;;;;7403537;19;20264;-73
2023/01/23 05:12:18;;;;;;;3.75;2.63;;;3.60;99.90;;;;;;7404410;19;19922;-72
2023/01/23 05:14:47;;;;;;;4.78;2.53;;;2.50;99.90;;;;;;7403883;19;19922;-71
2023/01/23 05:17:17;;;;;;;4.60;3.05;;;3.20;99.90;;;;;;7402518;19;19935;-71
2023/01/23 05:19:46;;;;;;;6.53;2.95;;;2.50;99.90;;;;;;7410356;19;19922;-71
2023/01/23 05:22:16;;;;;;;4.72;2.92;;;1.80;99.90;;;;;;7405092;19;19930;-72
2023/01/23 05:24:48;;;;;;;6.60;2.95;;;2.60;99.90;;;;;;7402885;19;19917;-72
2023/01/23 05:27:17;;;;;;;7.50;3.22;;;2.70;99.90;;;;;;7406877;19;19944;-72
2023/01/23 05:29:46;;;;;;;7.28;3.20;;;3.30;99.90;;;;;;7404583;19;19918;-71
2023/01/23 05:32:15;;;;;;;6.50;3.13;;;2.40;99.90;;;;;;7403413;19;19925;-72
2023/01/23 05:34:44;;;;;;;5.55;3.55;;;2.40;99.90;;;;;;7402466;19;20259;-71
2023/01/23 05:37:13;;;;;;;5.80;2.50;;;3.00;99.90;;;;;;7401995;19;20300;-72
2023/01/23 05:39:42;;;;;;;6.07;2.80;;;3.40;99.90;;;;;;7401626;19;20392;-72
2023/01/23 05:42:14;;;;;;;8.25;3.17;;;3.20;99.90;;;;;;7406470;19;19918;-71
2023/01/23 05:44:43;;;;;;;3.78;2.90;;;2.70;99.90;;;;;;7402258;19;19935;-71
2023/01/23 05:47:13;;;;;;;4.97;2.83;;;2.60;99.90;;;;;;7404358;19;19923;-72
2023/01/23 05:49:44;;;;;;;6.97;3.05;;;2.60;99.90;;;;;;7402260;19;19970;-73
2023/01/23 05:52:14;;;;;;;5.18;3.08;;;2.50;99.90;;;;;;7402094;19;19918;-72
2023/01/23 05:54:43;;;;;;;6.15;2.65;;;2.60;99.90;;;;;;7402352;19;19914;-72
2023/01/23 05:57:15;;;;;;;4.07;2.58;;;2.60;99.90;;;;;;7404220;19;19926;-71
2023/01/23 05:59:44;;;;;;;6.10;3.30;;;3.40;99.90;;;;;;7402020;19;19925;-71
2023/01/23 06:02:13;;;;;;;5.22;3.15;;;2.70;99.90;;;;;;7402468;19;19926;-72
2023/01/23 06:04:43;;;;;;;6.07;2.72;;;2.60;99.90;;;;;;7404199;19;20268;-71
2023/01/23 06:07:18;;;;;;;5.38;3.47;;;2.60;99.90;;;;;;7401828;19;19929;-71
2023/01/23 06:09:48;;;;;;;4.07;2.55;;;2.70;99.90;;;;;;7405436;19;19993;-71
2023/01/23 06:12:19;;;;;;;4.45;3.03;;;2.60;99.90;;;;;;7402737;19;19926;-71
2023/01/23 06:14:49;;;;;;;5.63;3.42;;;2.60;99.90;;;;;;7403806;19;19926;-72
2023/01/23 06:17:19;;;;;;;7.13;3.05;;;3.00;99.90;;;;;;7401423;19;20363;-72
2023/01/23 06:19:48;;;;;;;5.05;2.80;;;2.70;99.90;;;;;;7401852;19;19923;-72
2023/01/23 06:22:24;;;;;;;7.47;2.85;;;2.50;99.90;;;;;;7400500;19;19947;-72
2023/01/23 06:24:53;;;;;;;4.82;2.92;;;2.70;99.90;;;;;;7404824;19;19950;-71
2023/01/23 06:27:25;;;;;;;4.55;3.00;;;3.20;99.90;;;;;;7400689;19;20266;-71
2023/01/23 06:29:54;;;;;;;6.97;3.63;;;2.00;99.90;;;;;;7400433;19;20299;-73
2023/01/23 06:32:24;;;;;;;6.72;3.33;;;2.60;99.90;;;;;;7401769;19;19923;-72
2023/01/23 06:34:53;;;;;;;5.03;3.10;;;3.40;99.90;;;;;;7404251;19;19918;-72
2023/01/23 06:37:23;;;;;;;4.70;2.95;;;2.00;99.90;;;;;;7400592;19;19935;-72
2023/01/23 06:39:52;;;;;;;4.95;2.58;;;2.60;99.90;;;;;;7400623;19;19914;-71
2023/01/23 06:42:21;;;;;;;4.40;3.00;;;2.50;99.90;;;;;;7401061;19;19974;-72
2023/01/23 06:44:53;;;;;;;5.15;2.75;;;3.00;99.90;;;;;;7400437;19;20344;-73
2023/01/23 06:47:22;;;;;;;6.63;3.03;;;1.70;99.90;;;;;;7403582;19;19944;-72
2023/01/23 06:49:51;;;;;;;5.55;3.20;;;1.80;99.90;;;;;;7401693;19;19943;-72
2023/01/23 06:52:20;;;;;;;4.35;3.03;;;2.60;99.90;;;;;;7401678;19;19985;-72
2023/01/23 06:54:49;;;;;;;3.55;2.70;;;2.40;99.90;;;;;;7408782;19;19918;-71
2023/01/23 06:57:18;;;;;;;4.97;2.92;;;1.70;99.90;;;;;;7403398;19;19915;-71
2023/01/23 06:59:47;;;;;;;4.32;2.47;;;2.60;99.90;;;;;;7407210;19;20356;-71
2023/01/23 07:02:18;;;;;;;10.20;4.35;;;2.50;99.90;;;;;;7406706;19;19919;-71
2023/01/23 07:04:47;;;;;;;4.70;3.45;;;1.60;99.90;;;;;;7406614;19;19915;-71
2023/01/23 07:07:16;;;;;;;6.38;3.17;;;3.40;99.90;;;;;;7407672;19;19910;-71
2023/01/23 07:09:45;;;;;;;4.53;3.22;;;2.50;99.90;;;;;;7408435;19;19926;-71
2023/01/23 07:12:14;;;;;;;5.47;2.85;;;2.50;99.90;;;;;;7409891;19;19922;-71
2023/01/23 07:14:44;;;;;;;5.95;3.20;;;2.30;99.90;;;;;;7406831;19;20303;-72
2023/01/23 07:17:13;;;;;;;5.15;3.28;;;2.50;99.90;;;;;;7407851;19;20264;-71
2023/01/23 07:19:45;;;;;;;4.10;3.00;;;1.80;99.90;;;;;;7410228;19;19918;-72
2023/01/23 07:22:19;;;;;;;5.03;3.33;;;3.20;99.90;;;;;;7401780;19;19922;-71
2023/01/23 07:24:50;;;;;;;5.53;2.70;;;2.80;99.90;;;;;;7405997;19;19926;-71
2023/01/23 07:27:19;;;;;;;5.65;3.30;;;2.20;99.90;;;;;;7405426;19;19926;-72
2023/01/23 07:29:48;;;;;;;5.53;2.47;;;2.60;99.90;;;;;;7408834;19;19929;-71
2023/01/23 07:32:17;;;;;;;5.70;2.50;;;2.30;99.90;;;;;;7405805;19;19923;-71
2023/01/23 07:34:51;;;;;;;6.88;2.90;;;2.00;99.90;;;;;;7408568;19;19922;-71
2023/01/23 07:37:20;;;;;;;4.68;3.17;;;1.60;99.90;;;;;;7406872;19;19935;-72
2023/01/23 07:39:53;;;;;;;3.78;2.47;;;3.10;99.90;;;;;;7407537;19;19987;-71
2023/01/23 07:42:22;;;;;;;6.68;2.65;;;2.40;99.90;;;;;;7405824;19;19911;-71
2023/01/23 07:44:51;;;;;;;4.32;2.60;;;2.50;99.90;;;;;;7405828;19;19937;-71
2023/01/23 07:47:20;;;;;;;3.92;2.67;;;2.90;99.90;;;;;;7405854;19;19974;-71
2023/01/23 07:50:01;;;;;;;5.22;2.60;;;3.40;99.90;;;;;;7410199;19;19936;-71
2023/01/23 07:52:31;;;;;;;;;;;2.60;99.90;;;;;;7412919;19;19923;-71
2023/01/23 07:55:00;;;;;;;4.10;2.50;;;2.60;99.90;;;;;;7405901;19;19910;-71
2023/01/23 07:57:29;;;;;;;3.60;2.50;;;1.60;99.90;;;;;;7405887;19;19914;-71
2023/01/23 08:00:02;;;;;;;3.88;2.42;;;;;;;;;;7406975;19;19918;-71
2023/01/23 08:02:31;;;;;;;5.60;2.60;;;2.20;99.90;;;;;;7408318;19;19933;-71
2023/01/23 08:05:02;;;;;;;4.68;2.50;;;2.50;99.90;;;;;;7408934;19;19978;-71
2023/01/23 08:07:31;;;;;;;6.63;3.45;;;2.10;99.90;;;;;;7405291;19;19914;-71
2023/01/23 08:10:00;;;;;;;5.85;3.65;;;2.60;99.90;;;;;;7405071;19;19921;-71
2023/01/23 08:12:29;;;;;;;9.23;5.00;;;2.60;99.90;;;;;;7408595;19;19923;-71
2023/01/23 08:14:58;;;;;;;7.65;4.68;;;2.50;99.90;;;;;;7406206;19;20250;-71
2023/01/23 08:17:29;;;;;;;6.82;3.78;;;2.70;99.90;;;;;;7404054;19;19914;-71
2023/01/23 08:20:02;;;;;;;8.27;4.13;;;2.50;99.90;;;;;;7409060;19;19928;-71
2023/01/23 08:22:32;;;;;;;7.47;4.22;;;3.40;99.90;;;;;;7404116;19;19919;-71
2023/01/23 08:25:01;;;;;;;6.03;3.90;;;3.20;99.90;;;;;;7404400;19;19918;-71
2023/01/23 08:27:31;;;;;;;5.63;2.78;;;2.60;99.90;;;;;;7404074;19;19942;-71
2023/01/23 08:30:00;;;;;;;6.97;3.03;;;2.00;99.90;;;;;;7403296;19;19921;-71
2023/01/23 08:32:29;;;;;;;5.63;3.20;;;3.50;99.90;;;;;;7405109;19;19914;-71
2023/01/23 08:34:58;;;;;;;5.60;3.15;;;2.50;99.90;;;;;;7405996;19;19922;-71
2023/01/23 08:37:32;;;;;;;4.18;3.28;;;2.30;99.90;;;;;;7404510;19;19933;-72
2023/01/23 08:40:01;;;;;;;5.93;3.65;;;2.30;99.90;;;;;;7405571;19;19926;-71
2023/01/23 08:42:30;;;;;;;5.93;3.50;;;2.80;99.90;;;;;;7404445;19;20005;-71
2023/01/23 08:44:59;;;;;;;5.63;3.50;;;2.90;99.90;;;;;;7406091;19;19925;-71
2023/01/23 08:47:35;;;;;;;8.23;3.65;;;2.80;99.90;;;;;;7405175;19;19930;-72
2023/01/23 08:50:04;;;;;;;5.03;3.38;;;2.70;99.90;;;;;;7404335;19;19974;-72
2023/01/23 08:52:36;;;;;;;6.22;3.55;;;2.90;99.90;;;;;;7408217;19;19952;-71
2023/01/23 08:55:05;;;;;;;6.13;3.50;;;3.20;99.90;;;;;;7404035;19;19928;-72
2023/01/23 08:57:36;;;;;;;6.43;3.55;;;2.70;99.90;;;;;;7403890;19;19921;-72
2023/01/23 09:00:06;;;;;;;8.13;3.78;;;2.90;99.90;;;;;;7403219;19;19927;-72
2023/01/23 09:02:35;;;;;;;5.53;3.67;;;2.40;99.90;;;;;;7404783;19;19926;-72
2023/01/23 09:05:05;;;;;;;9.55;4.70;;;2.80;99.90;;;;;;7406171;19;19923;-71
2023/01/23 09:07:37;;;;;;;5.88;4.32;;;2.80;99.90;;;;;;7406409;19;19923;-71
2023/01/23 09:10:07;;;;;;;7.15;3.53;;;2.20;99.90;;;;;;7403141;19;19943;-72
2023/01/23 09:12:40;;;;;;;5.85;4.03;;;2.80;99.90;;;;;;7403189;19;19915;-71
2023/01/23 09:15:10;;;;;;;5.13;2.97;;;3.00;99.90;;;;;;7400101;19;19974;-72
2023/01/23 09:17:40;;;;;;;6.78;3.83;;;2.90;99.90;;;;;;7407357;19;19918;-72
2023/01/23 09:20:12;;;;;;;5.05;3.67;;;3.00;99.90;;;;;;7401880;19;19915;-72
2023/01/23 09:22:46;;;;;;;8.27;4.60;;;3.00;99.90;;;;;;7402187;19;19962;-72
2023/01/23 09:25:15;;;;;;;7.43;4.82;;;3.00;99.90;;;;;;7403960;19;19940;-72
2023/01/23 09:27:44;;;;;;;7.50;4.68;;;3.00;99.90;;;;;;7402954;19;19978;-72
2023/01/23 09:30:15;;;;;;;8.55;3.97;;;3.00;99.90;;;;;;7404347;19;20353;-71
2023/01/23 09:32:44;;;;;;;9.13;5.32;;;3.00;99.90;;;;;;7404986;19;19918;-71
2023/01/23 09:35:13;;;;;;;9.35;4.47;;;3.10;99.90;;;;;;7400672;19;19960;-71
2023/01/23 09:40:31;;;;;;;9.55;4.93;;;3.20;99.90;;;;;;7403136;19;19930;-71
2023/01/23 09:43:05;;;;;;;7.53;4.65;;;3.70;99.90;;;;;;7404246;19;19993;-71
2023/01/23 09:45:34;;;;;;;9.13;5.13;;;4.00;99.90;;;;;;7404277;19;20305;-71
2023/01/23 09:48:15;;;;;;;8.32;4.68;;;3.10;99.90;;;;;;7404838;19;19951;-72
2023/01/23 09:50:55;;;;;;;8.38;5.18;;;2.70;99.90;;;;;;7402282;19;20324;-72
2023/01/23 09:53:32;;;;;;;7.68;4.35;;;3.30;99.90;;;;;;7401644;19;19986;-71
2023/01/23 09:56:19;;;;;;;9.02;4.63;;;3.10;99.90;;;;;;7403102;19;19947;-71
2023/01/23 09:58:59;;;;;;;9.05;5.45;;;3.70;99.90;;;;;;7402064;19;19915;-71
2023/01/23 10:01:30;;;;;;;10.30;6.20;;;3.70;99.90;;;;;;7402774;19;19919;-71
2023/01/23 10:04:01;;;;;;;11.82;6.07;;;3.10;99.90;;;;;;7400734;19;19924;-71
2023/01/23 10:06:32;;;;;;;10.68;5.03;;;3.30;99.90;;;;;;7402043;19;19936;-71
2023/01/23 10:09:28;;;;;;;15.18;5.05;;;3.20;99.90;;;;;;7402684;19;19921;-71
2023/01/23 10:12:03;;;;;;;9.98;6.68;;;3.60;99.90;;;;;;7402082;19;19924;-72
2023/01/23 10:14:57;;;;;;;9.35;6.18;;;3.70;99.90;;;;;;7402027;19;19940;-71
2023/01/23 10:17:31;;;;;;;11.30;5.45;;;3.10;99.90;;;;;;7400825;19;19919;-71
2023/01/23 10:20:24;;;;;;;8.68;5.15;;;3.20;99.90;;;;;;7402827;19;19982;-72
2023/01/23 10:23:06;;;;;;;8.07;5.35;;;3.30;99.90;;;;;;7401943;19;20336;-71
2023/01/23 10:25:41;;;;;;;9.68;4.80;;;3.30;99.90;;;;;;7402200;19;19923;-71
2023/01/23 10:28:31;;;;;;;8.32;4.57;;;3.40;99.90;;;;;;7410251;19;19931;-71
2023/01/23 10:31:04;;;;;;;9.32;5.28;;;3.70;99.90;;;;;;7407179;19;19910;-71
2023/01/23 10:33:42;;;;;;;8.88;4.93;;;3.40;99.90;;;;;;7409687;19;19933;-71
2023/01/23 10:36:21;;;;;;;11.80;5.50;;;4.10;99.90;;;;;;7411042;19;19922;-71
2023/01/23 10:38:58;;;;;;;8.32;4.20;;;2.80;99.90;;;;;;7408431;19;19924;-72
2023/01/23 10:41:30;;;;;;;8.93;4.78;;;4.10;99.90;;;;;;7408183;19;19994;-71
2023/01/23 10:43:59;;;;;;;7.20;5.30;;;3.10;99.90;;;;;;7407465;19;19978;-72
2023/01/23 10:46:34;;;;;;;10.73;5.43;;;3.50;99.90;;;;;;7409908;19;19914;-72
2023/01/23 10:49:05;;;;;;;11.55;5.47;;;3.50;99.90;;;;;;7407505;19;19922;-72
2023/01/23 10:51:37;;;;;;;8.35;4.75;;;3.50;99.90;;;;;;7408814;19;19973;-72
2023/01/23 10:54:14;;;;;;;11.48;5.00;;;3.60;99.90;;;;;;7406032;19;19935;-72
2023/01/23 10:56:57;;;;;;;9.35;5.90;;;3.50;99.90;;;;;;7403963;19;19981;-72
2023/01/23 10:59:36;;;;;;;8.43;4.75;;;2.60;99.90;;;;;;7403550;19;20036;-73
2023/01/23 11:02:21;;;;;;;8.77;4.70;;;3.70;99.90;;;;;;7391396;19;20361;-73
2023/01/23 11:04:53;;;;;;;8.27;5.22;;;3.50;99.90;;;;;;7406086;19;19951;-75
2023/01/23 11:07:25;;;;;;;10.18;5.35;;;3.50;99.90;;;;;;7407726;19;19918;-72
2023/01/23 11:09:58;;;;;;;10.18;5.10;;;3.60;99.90;;;;;;7406720;19;20548;-71
2023/01/23 11:12:31;;;;;;;7.05;4.80;;;3.50;99.90;;;;;;7408318;19;20358;-73
2023/01/23 11:15:21;;;;;;;8.57;4.80;;;3.90;99.90;;;;;;7407442;19;19915;-72
2023/01/23 11:17:50;;;;;;;7.22;4.40;;;4.10;99.90;;;;;;7408078;19;19915;-72
2023/01/23 11:20:29;;;;;;;8.27;4.95;;;3.50;99.90;;;;;;7408022;19;19930;-73
2023/01/23 11:23:17;;;;;;;7.40;4.78;;;3.60;99.90;;;;;;7403529;19;19935;-71
2023/01/23 11:25:47;;;;;;;8.75;4.78;;;4.00;99.90;;;;;;7405009;19;19932;-72
2023/01/23 11:28:26;;;;;;;7.40;4.55;;;3.70;99.90;;;;;;7402912;19;19985;-74
2023/01/23 11:31:00;;;;;;;6.63;3.88;;;3.60;99.90;;;;;;7406735;19;19925;-74
2023/01/23 11:33:41;;;;;;;8.15;5.07;;;4.50;99.90;;;;;;7404330;19;19911;-74
2023/01/23 11:36:40;;;;;;;7.82;4.53;;;4.60;99.90;;;;;;7404085;19;19935;-73
2023/01/23 11:39:20;;;;;;;9.10;4.90;;;3.70;99.90;;;;;;7404813;19;20288;-75
2023/01/23 11:41:49;;;;;;;6.93;3.78;;;3.60;99.90;;;;;;7406868;19;19919;-75
2023/01/23 11:44:22;;;;;;;8.40;4.88;;;3.80;99.90;;;;;;7406063;19;19914;-73
2023/01/23 11:47:13;;;;;;;10.60;5.28;;;3.70;99.90;;;;;;7406147;19;19930;-75
2023/01/23 11:50:04;;;;;;;8.38;4.57;;;3.40;99.90;;;;;;7407656;19;19925;-73
2023/01/23 11:52:50;;;;;;;9.82;5.57;;;4.30;99.90;;;;;;7406206;19;19950;-76
2023/01/23 11:55:52;;;;;;;9.48;5.10;;;4.20;99.90;;;;;;7404310;19;20272;-75
2023/01/23 11:58:37;;;;;;;8.18;4.47;;;3.80;99.90;;;;;;7404387;19;19929;-74
2023/01/23 12:01:17;;;;;;;7.95;5.00;;;3.80;99.90;;;;;;7403999;19;19943;-74
2023/01/23 12:04:15;;;;;;;9.73;4.68;;;3.80;99.90;;;;;;7407687;19;19934;-74
2023/01/23 12:07:01;;;;;;;9.75;5.00;;;3.90;99.90;;;;;;7405223;19;19915;-75
2023/01/23 12:09:37;;;;;;;11.38;5.47;;;3.80;99.90;;;;;;7406918;19;19934;-77
2023/01/23 12:12:16;;;;;;;7.22;4.70;;;3.80;99.90;;;;;;7403832;19;19929;-77
2023/01/23 12:14:59;;;;;;;9.35;5.07;;;3.80;99.90;;;;;;7406391;19;19919;-77
2023/01/23 12:17:43;;;;;;;9.02;5.53;;;3.80;99.90;;;;;;7406478;19;19986;-76
2023/01/23 12:20:32;;;;;;;9.95;4.82;;;3.90;99.90;;;;;;7403119;19;19990;-75
2023/01/23 12:23:18;;;;;;;8.90;5.20;;;3.70;99.90;;;;;;7405355;19;19918;-74
2023/01/23 12:25:55;;;;;;;7.88;4.38;;;4.30;99.90;;;;;;7410331;19;19918;-73
2023/01/23 12:28:43;;;;;;;7.65;4.82;;;4.70;99.90;;;;;;7405055;19;19986;-73
2023/01/23 12:31:28;;;;;;;8.30;5.03;;;4.10;99.90;;;;;;7406006;19;19930;-73
2023/01/23 12:34:14;;;;;;;9.20;5.47;;;3.90;99.90;;;;;;7405991;19;19931;-73
2023/01/23 12:36:56;;;;;;;8.50;5.63;;;4.30;99.90;;;;;;7406631;19;19923;-73
2023/01/23 12:39:44;;;;;;;8.57;5.00;;;4.40;99.90;;;;;;7400357;19;19935;-73
2023/01/23 12:42:18;;;;;;;8.95;4.75;;;4.80;99.90;;;;;;7403690;19;19922;-73
2023/01/23 12:44:55;;;;;;;9.00;5.10;;;4.00;99.90;;;;;;7405899;19;19939;-73
2023/01/23 12:47:28;;;;;;;9.15;5.38;;;3.90;99.90;;;;;;7405900;19;20263;-72
2023/01/23 12:50:03;;;;;;;8.32;4.60;;;4.00;99.90;;;;;;7398822;19;19922;-73
2023/01/23 12:52:39;;;;;;;8.90;4.70;;;4.70;99.90;;;;;;7404183;19;19934;-73
2023/01/23 12:55:19;;;;;;;8.75;4.63;;;4.00;99.90;;;;;;7402425;19;19919;-73
2023/01/23 12:57:53;;;;;;;10.65;5.13;;;2.80;99.90;;;;;;7402994;19;19942;-73
2023/01/23 13:00:36;;;;;;;9.75;5.00;;;3.70;99.90;;;;;;7396502;19;19918;-73
2023/01/23 13:03:19;;;;;;;9.82;5.35;;;3.80;99.90;;;;;;7399919;19;19915;-73
2023/01/23 13:06:02;;;;;;;9.82;4.88;;;3.80;99.90;;;;;;7403121;19;19930;-73
2023/01/23 13:08:35;;;;;;;10.50;5.32;;;3.80;99.90;;;;;;7403615;19;19982;-73
2023/01/23 13:13:52;;;;;;;9.40;5.53;;;3.80;99.90;;;;;;7406250;19;19918;-73
2023/01/23 13:16:22;;;;;;;7.28;4.43;;;3.80;99.90;;;;;;7401355;19;19922;-73
2023/01/23 13:27:43;;;;;;;8.05;5.20;;;4.80;99.90;;;;;;7402200;19;19926;-72
2023/01/23 13:30:38;;;;;;;8.82;4.75;;;4.20;99.90;;;;;;7407154;19;19923;-73
2023/01/23 13:33:37;;;;;;;9.10;4.82;;;3.80;99.90;;;;;;7408315;19;19921;-73
2023/01/23 13:36:15;;;;;;;8.98;4.80;;;3.80;99.90;;;;;;7400035;19;19947;-73
2023/01/23 13:39:02;;;;;;;9.63;4.85;;;3.60;99.90;;;;;;7404410;19;19915;-73
2023/01/23 13:41:33;;;;;;;7.22;4.38;;;3.80;99.90;;;;;;7400335;19;19914;-73
2023/01/23 13:44:17;;;;;;;9.38;4.97;;;3.60;99.90;;;;;;7402280;19;19922;-73
2023/01/23 13:47:01;;;;;;;7.68;4.55;;;3.80;99.90;;;;;;7400823;19;19998;-72
2023/01/23 13:49:54;;;;;;;7.05;4.03;;;4.10;99.90;;;;;;7396901;19;19929;-73
2023/01/23 13:58:12;;;;;;;11.75;6.10;;;3.80;99.90;;;;;;7401322;19;19982;-72